Time;durP1;ratioP1;P1;durP2;ratioP2;P2;SDS_P1;SDS_P2;PMS_P1;PMS_P2;Temp;Humidity;BMP_temperature;BMP_pressure;BME280_temperature;BME280_humidity;BME280_pressure;Samples;Min_cycle;Max_cycle;Signal;HPM_P1;HPM_P2
2022/06/05 00:02:17;;;;;;;3.45;2.38;;;14.30;99.90;;;;;;4938481;29;20436;-87
2022/06/05 00:05:04;;;;;;;3.05;2.75;;;14.30;99.90;;;;;;4937927;29;20040;-87
2022/06/05 00:08:19;;;;;;;2.85;2.65;;;14.20;99.90;;;;;;4955478;29;20098;-88
2022/06/05 00:10:54;;;;;;;3.50;2.85;;;14.20;99.90;;;;;;4955341;29;20090;-87
2022/06/05 00:16:43;;;;;;;2.10;2.00;;;14.10;99.90;;;;;;4955331;29;20039;-87
2022/06/05 00:19:08;;;;;;;3.75;2.60;;;14.10;99.90;;;;;;4955152;29;20479;-87
2022/06/05 00:21:45;;;;;;;2.70;2.47;;;14.00;99.90;;;;;;4938084;29;20383;-87
2022/06/05 00:24:11;;;;;;;2.75;2.38;;;14.00;99.90;;;;;;4955106;29;20063;-87
2022/06/05 00:26:54;;;;;;;3.75;2.53;;;14.00;99.90;;;;;;4955080;29;20066;-88
2022/06/05 00:29:47;;;;;;;6.50;2.65;;;14.00;99.90;;;;;;4955163;29;20026;-87
2022/06/05 00:32:37;;;;;;;3.67;2.78;;;14.00;99.90;;;;;;4955089;29;20506;-88
2022/06/05 00:35:04;;;;;;;3.42;2.50;;;13.90;99.90;;;;;;4955013;29;20020;-87
2022/06/05 00:37:54;;;;;;;5.90;3.15;;;13.90;99.90;;;;;;4954938;29;20034;-88
2022/06/05 00:40:51;;;;;;;2.80;2.50;;;13.90;99.90;;;;;;4955031;29;20035;-88
2022/06/05 00:43:18;;;;;;;;;;;13.80;99.90;;;;;;4955354;29;20098;-88
2022/06/05 00:45:45;;;;;;;4.68;2.95;;;13.80;99.90;;;;;;4955010;29;19906;-88
2022/06/05 00:48:29;;;;;;;4.75;3.00;;;13.80;99.90;;;;;;4937575;29;20051;-88
2022/06/05 00:50:55;;;;;;;4.65;2.70;;;13.70;99.90;;;;;;4937644;29;20424;-88
2022/06/05 00:53:20;;;;;;;4.75;2.72;;;13.60;99.90;;;;;;4954521;29;20043;-87
2022/06/05 00:55:49;;;;;;;2.90;2.60;;;13.60;99.90;;;;;;4954874;29;20051;-88
2022/06/05 00:58:16;;;;;;;4.25;3.20;;;13.60;99.90;;;;;;4937732;29;20054;-87
2022/06/05 01:00:46;;;;;;;3.25;2.90;;;13.60;99.90;;;;;;4937679;29;20034;-87
2022/06/05 01:03:12;;;;;;;3.20;2.90;;;13.60;99.90;;;;;;4954732;29;20162;-88
2022/06/05 01:05:41;;;;;;;3.83;3.42;;;13.60;99.90;;;;;;4937459;28;20023;-88
2022/06/05 01:08:09;;;;;;;3.33;2.72;;;13.50;99.90;;;;;;4957599;29;20387;-88
2022/06/05 01:10:40;;;;;;;4.28;3.13;;;13.50;99.90;;;;;;4941032;29;20034;-87
2022/06/05 01:13:46;;;;;;;5.28;3.08;;;13.50;99.90;;;;;;4958104;29;20026;-88
2022/06/05 01:16:51;;;;;;;3.30;2.97;;;13.50;99.90;;;;;;4929420;29;20491;-87
2022/06/05 01:19:40;;;;;;;3.38;3.08;;;13.50;99.90;;;;;;4958111;29;20102;-88
2022/06/05 01:22:27;;;;;;;6.47;2.97;;;13.40;99.90;;;;;;4957998;29;20422;-88
2022/06/05 01:25:36;;;;;;;8.32;3.35;;;13.40;99.90;;;;;;4940570;29;20122;-88
2022/06/05 01:28:17;;;;;;;4.05;3.28;;;13.30;99.90;;;;;;4957803;29;20059;-88
2022/06/05 01:31:06;;;;;;;3.30;3.00;;;13.30;99.90;;;;;;4940596;29;20026;-87
2022/06/05 01:33:37;;;;;;;6.43;3.72;;;13.20;99.90;;;;;;4957617;29;20055;-88
2022/06/05 01:36:24;;;;;;;4.30;3.00;;;13.20;99.90;;;;;;4940350;29;20537;-88
2022/06/05 01:39:09;;;;;;;2.80;2.50;;;13.20;99.90;;;;;;4940540;29;20046;-88
2022/06/05 01:41:58;;;;;;;3.65;2.90;;;13.20;99.90;;;;;;4940198;29;20090;-87
2022/06/05 01:44:31;;;;;;;3.50;3.20;;;13.20;99.90;;;;;;4940220;29;20039;-88
2022/06/05 01:47:03;;;;;;;3.13;2.65;;;13.20;99.90;;;;;;4957449;29;20066;-88
2022/06/05 01:49:50;;;;;;;3.78;2.88;;;13.20;99.90;;;;;;4957481;29;20015;-87
2022/06/05 01:52:26;;;;;;;3.67;3.33;;;13.20;99.90;;;;;;4957129;29;20050;-88
2022/06/05 01:55:04;;;;;;;5.13;3.38;;;13.20;99.90;;;;;;4957186;29;20027;-88
2022/06/05 01:57:33;;;;;;;3.03;2.78;;;13.20;99.90;;;;;;4940116;29;20035;-88
2022/06/05 02:00:37;;;;;;;3.33;3.03;;;13.10;99.90;;;;;;4940240;29;20031;-88
2022/06/05 02:03:19;;;;;;;3.30;3.00;;;13.20;99.90;;;;;;4930216;29;20042;-88
2022/06/05 02:05:55;;;;;;;3.42;3.13;;;13.20;99.90;;;;;;4957314;29;20106;-88
2022/06/05 02:09:18;;;;;;;14.82;4.85;;;13.20;99.90;;;;;;4923841;29;20036;-88
2022/06/05 02:11:44;;;;;;;4.13;3.10;;;13.20;99.90;;;;;;4949420;29;20027;-87
2022/06/05 02:14:10;;;;;;;4.03;3.30;;;13.10;99.90;;;;;;4956875;29;20024;-88
2022/06/05 02:16:38;;;;;;;3.53;3.22;;;13.10;99.90;;;;;;4956839;29;20066;-88
2022/06/05 02:19:19;;;;;;;3.97;2.97;;;13.10;99.90;;;;;;4955716;28;20027;-88
2022/06/05 02:21:45;;;;;;;3.33;2.78;;;13.10;99.90;;;;;;4956875;29;20027;-88
2022/06/05 02:24:12;;;;;;;3.42;3.13;;;13.00;99.90;;;;;;4956648;29;20078;-88
2022/06/05 02:26:41;;;;;;;4.07;3.65;;;12.90;99.90;;;;;;4939259;29;20049;-88
2022/06/05 02:29:12;;;;;;;5.28;3.63;;;12.90;99.90;;;;;;4956502;29;20109;-88
2022/06/05 02:32:06;;;;;;;5.70;3.88;;;12.90;99.90;;;;;;4956453;29;20023;-88
2022/06/05 02:34:42;;;;;;;4.53;3.65;;;12.80;99.90;;;;;;4956341;29;20027;-88
2022/06/05 02:37:29;;;;;;;3.70;3.38;;;12.80;99.90;;;;;;4956423;29;20054;-88
2022/06/05 02:40:10;;;;;;;4.38;3.67;;;12.70;99.90;;;;;;4956209;29;20027;-88
2022/06/05 02:43:00;;;;;;;3.97;3.65;;;12.70;99.90;;;;;;4939029;29;20031;-88
2022/06/05 02:45:52;;;;;;;4.50;3.58;;;12.70;99.90;;;;;;4933619;29;20067;-88
2022/06/05 02:48:38;;;;;;;3.95;3.60;;;12.70;99.90;;;;;;4956013;29;20023;-88
2022/06/05 02:51:13;;;;;;;4.13;3.70;;;12.60;99.90;;;;;;4939113;29;20023;-88
2022/06/05 02:53:47;;;;;;;5.15;4.22;;;12.60;99.90;;;;;;4938632;29;20134;-88
2022/06/05 02:56:13;;;;;;;5.82;4.43;;;12.50;99.90;;;;;;4938905;29;20166;-88
2022/06/05 02:58:44;;;;;;;5.82;4.53;;;12.50;99.90;;;;;;4938643;29;20110;-88
2022/06/05 03:03:53;;;;;;;4.65;3.88;;;12.50;99.90;;;;;;4956024;29;20034;-88
2022/06/05 03:06:21;;;;;;;7.25;4.55;;;12.50;99.90;;;;;;4955784;29;20394;-88
2022/06/05 03:08:46;;;;;;;5.55;3.90;;;12.50;99.90;;;;;;4955688;29;20043;-88
2022/06/05 03:11:12;;;;;;;4.50;4.10;;;12.50;99.90;;;;;;4955742;29;20383;-88
2022/06/05 03:13:44;;;;;;;6.20;4.55;;;12.50;99.90;;;;;;4955699;29;20038;-88
2022/06/05 03:16:09;;;;;;;5.68;3.75;;;12.50;99.90;;;;;;4938377;29;20019;-88
2022/06/05 03:18:35;;;;;;;5.82;3.75;;;12.50;99.90;;;;;;4938327;29;20398;-88
2022/06/05 03:21:03;;;;;;;5.07;4.30;;;12.50;99.90;;;;;;4955639;29;20038;-88
2022/06/05 03:23:29;;;;;;;5.80;3.95;;;12.50;99.90;;;;;;4955197;29;20019;-88
2022/06/05 03:25:55;;;;;;;6.47;4.03;;;12.40;99.90;;;;;;4955371;29;20034;-88
2022/06/05 03:28:22;;;;;;;4.47;4.07;;;12.40;99.90;;;;;;4955637;29;20399;-88
2022/06/05 03:30:48;;;;;;;6.03;4.45;;;12.40;99.90;;;;;;4955099;28;20468;-88
2022/06/05 03:33:13;;;;;;;8.55;5.32;;;12.30;99.90;;;;;;4955247;29;20110;-87
2022/06/05 03:35:44;;;;;;;9.00;5.43;;;12.30;99.90;;;;;;4955270;29;20098;-87
2022/06/05 03:38:12;;;;;;;8.68;5.90;;;12.30;99.90;;;;;;4938086;29;20360;-88
2022/06/05 03:40:42;;;;;;;5.82;4.78;;;12.30;99.90;;;;;;4955159;29;20027;-88
2022/06/05 03:43:10;;;;;;;6.78;4.80;;;12.30;99.90;;;;;;4955065;29;20410;-88
2022/06/05 03:45:35;;;;;;;10.93;6.28;;;12.30;99.90;;;;;;4938001;29;20031;-87
2022/06/05 03:48:01;;;;;;;8.80;5.93;;;12.30;99.90;;;;;;4955123;29;20391;-88
2022/06/05 03:50:28;;;;;;;5.45;4.82;;;12.40;99.90;;;;;;4954838;29;20447;-88
2022/06/05 03:52:55;;;;;;;6.88;5.65;;;12.40;99.90;;;;;;4954741;29;20043;-88
2022/06/05 03:55:22;;;;;;;6.22;5.50;;;12.50;99.90;;;;;;4954929;29;20019;-88
2022/06/05 03:57:49;;;;;;;6.32;5.60;;;12.50;99.90;;;;;;4954965;29;20032;-88
2022/06/05 04:00:17;;;;;;;9.07;5.82;;;12.60;99.90;;;;;;4937966;29;20420;-87
2022/06/05 04:02:43;;;;;;;14.10;6.25;;;12.60;99.90;;;;;;4954992;29;20027;-88
2022/06/05 04:05:13;;;;;;;13.13;5.68;;;12.60;99.90;;;;;;4937711;29;20119;-88
2022/06/05 04:07:39;;;;;;;6.60;5.72;;;12.70;99.90;;;;;;4954859;29;20042;-88
2022/06/05 04:10:06;;;;;;;7.28;5.60;;;12.70;99.90;;;;;;4937745;29;20492;-88
2022/06/05 04:12:32;;;;;;;6.90;5.70;;;12.80;99.90;;;;;;4954870;29;20487;-88
2022/06/05 04:15:04;;;;;;;17.50;6.75;;;12.80;99.90;;;;;;4954746;29;20106;-88
2022/06/05 04:17:29;;;;;;;8.00;5.90;;;12.80;99.90;;;;;;4954659;29;20090;-88
2022/06/05 04:19:55;;;;;;;8.13;5.47;;;12.80;99.90;;;;;;4954972;29;20475;-88
2022/06/05 04:22:24;;;;;;;5.55;4.97;;;12.90;99.90;;;;;;4937901;29;20027;-88
2022/06/05 04:24:49;;;;;;;7.05;5.82;;;12.90;99.90;;;;;;4937489;29;20031;-88
2022/06/05 04:27:15;;;;;;;8.63;6.55;;;13.00;99.90;;;;;;4954823;29;20042;-87
2022/06/05 04:29:53;;;;;;;7.93;5.28;;;13.10;99.90;;;;;;4954857;29;20024;-88
2022/06/05 04:32:19;;;;;;;7.03;5.38;;;13.20;99.90;;;;;;4954853;29;20039;-88
2022/06/05 04:34:45;;;;;;;6.90;5.50;;;13.20;99.90;;;;;;4937978;29;20035;-88
2022/06/05 04:37:20;;;;;;;6.75;5.82;;;13.30;99.90;;;;;;4955202;29;20034;-87
2022/06/05 04:39:45;;;;;;;6.22;5.32;;;13.30;99.90;;;;;;4954854;29;20106;-88
2022/06/05 04:42:11;;;;;;;8.65;6.97;;;13.40;99.90;;;;;;4956629;28;20493;-88
2022/06/05 04:44:48;;;;;;;5.47;4.85;;;13.40;99.90;;;;;;4941352;29;20031;-87
2022/06/05 04:47:17;;;;;;;7.75;5.80;;;13.50;99.90;;;;;;4958179;29;20023;-88
2022/06/05 04:49:43;;;;;;;5.95;5.35;;;13.50;99.90;;;;;;4941171;29;20033;-87
2022/06/05 04:52:08;;;;;;;7.60;5.85;;;13.60;99.90;;;;;;4957963;29;20126;-88
2022/06/05 04:54:35;;;;;;;8.93;6.47;;;13.70;99.90;;;;;;4958038;29;20471;-87
2022/06/05 04:57:01;;;;;;;5.90;5.30;;;13.70;99.90;;;;;;4958212;29;20078;-88
2022/06/05 04:59:26;;;;;;;9.32;6.53;;;13.80;99.90;;;;;;4958032;29;20039;-87
2022/06/05 05:01:54;;;;;;;9.40;6.78;;;13.90;99.90;;;;;;4958080;29;20081;-88
2022/06/05 05:04:19;;;;;;;7.03;6.03;;;14.00;99.90;;;;;;4957871;29;20039;-87
2022/06/05 05:06:45;;;;;;;7.60;6.07;;;14.10;99.90;;;;;;4957864;29;20383;-88
2022/06/05 05:09:12;;;;;;;12.07;7.22;;;14.10;99.90;;;;;;4957965;29;20019;-88
2022/06/05 05:11:39;;;;;;;9.05;6.70;;;14.20;99.90;;;;;;4957769;29;20024;-87
2022/06/05 05:14:04;;;;;;;14.25;6.97;;;14.30;99.90;;;;;;4957774;29;20023;-87
2022/06/05 05:16:33;;;;;;;8.65;6.28;;;14.30;99.90;;;;;;4940609;29;20070;-88
2022/06/05 05:18:59;;;;;;;8.38;6.97;;;14.40;99.90;;;;;;4957677;29;20470;-87
2022/06/05 05:21:26;;;;;;;8.15;6.60;;;14.50;99.90;;;;;;4957709;29;20102;-87
2022/06/05 05:23:54;;;;;;;14.40;6.15;;;14.60;99.90;;;;;;4940338;29;20031;-86
2022/06/05 05:26:31;;;;;;;11.43;5.68;;;14.60;99.90;;;;;;4940565;29;20023;-87
2022/06/05 05:28:58;;;;;;;11.13;6.50;;;14.80;99.90;;;;;;4957665;29;20407;-87
2022/06/05 05:31:28;;;;;;;7.45;5.78;;;14.80;99.90;;;;;;4957530;29;20062;-87
2022/06/05 05:33:54;;;;;;;8.05;5.78;;;14.90;99.90;;;;;;4940126;29;20027;-87
2022/06/05 05:36:22;;;;;;;13.32;7.78;;;14.90;99.90;;;;;;4957226;29;20360;-87
2022/06/05 05:44:22;;;;;;;9.25;6.60;;;15.20;99.90;;;;;;4957358;29;20086;-87
2022/06/05 05:46:49;;;;;;;9.35;6.05;;;15.30;99.90;;;;;;4957061;29;20475;-88
2022/06/05 05:49:14;;;;;;;8.55;5.97;;;15.40;99.90;;;;;;4940086;29;20035;-87
2022/06/05 05:51:43;;;;;;;7.78;6.15;;;15.50;99.90;;;;;;4939896;29;20043;-87
2022/06/05 05:54:10;;;;;;;10.23;6.82;;;15.60;99.90;;;;;;4939915;29;20027;-88
2022/06/05 05:56:36;;;;;;;8.63;7.68;;;15.70;99.90;;;;;;4956964;29;20042;-88
2022/06/05 05:59:03;;;;;;;10.70;7.43;;;15.80;99.90;;;;;;4957068;29;20476;-87
2022/06/05 06:01:29;;;;;;;10.15;7.75;;;15.80;99.90;;;;;;4956836;29;20030;-87
2022/06/05 06:03:55;;;;;;;9.10;7.22;;;15.80;99.90;;;;;;4956683;29;20027;-87
2022/06/05 06:06:30;;;;;;;11.68;7.18;;;15.80;99.90;;;;;;4939568;29;20031;-87
2022/06/05 06:08:55;;;;;;;19.77;7.68;;;15.90;99.90;;;;;;4939848;29;20448;-87
2022/06/05 06:11:21;;;;;;;7.88;7.05;;;15.90;99.90;;;;;;4939725;29;20027;-88
2022/06/05 06:13:51;;;;;;;14.45;8.13;;;16.00;99.90;;;;;;4956649;29;20054;-87
2022/06/05 06:16:17;;;;;;;9.02;6.68;;;16.10;99.90;;;;;;4956824;29;20031;-88
2022/06/05 06:18:43;;;;;;;8.60;6.10;;;16.20;99.90;;;;;;4956801;29;20031;-88
2022/06/05 06:21:15;;;;;;;8.20;6.50;;;16.40;99.90;;;;;;4956803;29;20053;-88
2022/06/05 06:23:41;;;;;;;10.43;6.82;;;16.50;99.90;;;;;;4956634;29;20107;-87
2022/06/05 06:26:07;;;;;;;12.30;6.65;;;16.70;99.90;;;;;;4956726;29;20458;-87
2022/06/05 06:28:36;;;;;;;10.00;5.93;;;16.80;99.90;;;;;;4956731;29;20027;-87
2022/06/05 06:31:10;;;;;;;10.48;5.65;;;17.00;99.90;;;;;;4956603;29;20051;-88
2022/06/05 06:33:37;;;;;;;11.48;5.70;;;17.10;99.90;;;;;;4939138;29;20435;-87
2022/06/05 06:36:07;;;;;;;11.38;6.43;;;17.30;99.90;;;;;;4956603;29;20027;-88
2022/06/05 06:38:33;;;;;;;10.90;6.30;;;17.40;99.90;;;;;;4939318;29;20423;-88
2022/06/05 06:41:01;;;;;;;13.48;5.60;;;17.50;99.90;;;;;;4956392;29;20027;-87
2022/06/05 06:43:48;;;;;;;15.95;6.55;;;17.50;99.90;;;;;;4956435;29;20031;-87
2022/06/05 06:46:16;;;;;;;8.32;6.40;;;17.70;99.90;;;;;;4939142;29;20031;-88
2022/06/05 06:48:41;;;;;;;7.53;5.82;;;17.80;99.90;;;;;;4956184;29;20058;-86
2022/06/05 06:51:09;;;;;;;16.35;6.97;;;18.00;99.90;;;;;;4956083;29;20024;-87
2022/06/05 06:53:37;;;;;;;14.38;5.90;;;18.00;99.90;;;;;;4938712;29;20081;-87
2022/06/05 06:56:10;;;;;;;8.85;6.88;;;18.10;99.90;;;;;;4956080;29;20082;-87
2022/06/05 06:58:36;;;;;;;6.82;5.97;;;18.10;99.90;;;;;;4956094;29;20364;-86
2022/06/05 07:01:02;;;;;;;11.48;6.18;;;18.20;99.90;;;;;;4956137;29;20062;-88
2022/06/05 07:03:28;;;;;;;13.02;6.55;;;18.20;99.90;;;;;;4955872;29;20031;-87
2022/06/05 07:05:56;;;;;;;11.00;6.35;;;18.30;99.90;;;;;;4938192;29;20037;-87
2022/06/05 07:08:22;;;;;;;13.40;6.65;;;18.40;99.90;;;;;;4938563;29;20039;-86
2022/06/05 07:10:47;;;;;;;8.15;6.30;;;18.50;99.90;;;;;;4938684;29;20062;-87
2022/06/05 07:13:19;;;;;;;10.07;6.45;;;18.50;99.90;;;;;;4938661;29;20023;-87
2022/06/05 07:15:45;;;;;;;12.52;6.63;;;18.60;99.90;;;;;;4955641;29;20093;-86
2022/06/05 07:18:11;;;;;;;9.45;5.85;;;18.60;99.90;;;;;;4955768;29;20027;-87
2022/06/05 07:20:39;;;;;;;9.15;6.35;;;18.60;99.90;;;;;;4955817;29;20039;-87
2022/06/05 07:23:05;;;;;;;10.48;6.30;;;18.70;99.90;;;;;;4955755;29;20387;-88
2022/06/05 07:25:32;;;;;;;13.60;6.68;;;18.70;99.90;;;;;;4955730;29;20475;-88
2022/06/05 07:27:59;;;;;;;11.15;6.35;;;18.80;99.90;;;;;;4955536;29;20034;-88
2022/06/05 07:30:25;;;;;;;8.82;6.70;;;18.80;99.90;;;;;;4955568;29;20024;-86
2022/06/05 07:32:51;;;;;;;8.60;6.03;;;18.90;99.90;;;;;;4955469;29;20034;-87
2022/06/05 07:35:30;;;;;;;13.80;7.47;;;19.00;99.90;;;;;;4955580;29;20034;-87
2022/06/05 07:37:55;;;;;;;21.00;8.82;;;19.10;99.90;;;;;;4955656;29;20537;-86
2022/06/05 07:40:21;;;;;;;14.30;8.10;;;19.20;99.90;;;;;;4955275;29;20027;-86
2022/06/05 07:42:49;;;;;;;18.35;8.32;;;19.30;99.90;;;;;;4937979;29;20541;-87
2022/06/05 07:45:16;;;;;;;16.40;10.43;;;19.30;99.90;;;;;;4937909;29;20061;-87
2022/06/05 07:47:42;;;;;;;13.50;8.80;;;19.50;99.90;;;;;;4954927;29;20506;-86
2022/06/05 07:50:09;;;;;;;10.80;8.27;;;19.50;99.90;;;;;;4955006;29;20019;-86
2022/06/05 07:55:22;;;;;;;12.38;7.90;;;19.50;99.90;;;;;;4955440;29;20441;-86
2022/06/05 07:57:48;;;;;;;9.50;7.88;;;19.50;99.90;;;;;;4955162;29;20027;-86
2022/06/05 08:00:14;;;;;;;8.30;6.43;;;19.60;99.90;;;;;;4955328;29;20043;-86
2022/06/05 08:02:40;;;;;;;10.85;6.97;;;19.60;99.90;;;;;;4955249;29;20511;-87
2022/06/05 08:05:06;;;;;;;11.68;8.45;;;19.60;99.90;;;;;;4954998;29;20117;-87
2022/06/05 08:07:33;;;;;;;15.73;9.73;;;19.60;99.90;;;;;;4954905;29;20027;-86
2022/06/05 08:10:00;;;;;;;17.25;8.95;;;19.70;99.90;;;;;;4937703;29;20304;-86
2022/06/05 08:12:30;;;;;;;12.27;8.88;;;19.70;99.90;;;;;;4955019;29;20031;-86
2022/06/05 08:15:21;;;;;;;12.95;9.32;;;19.80;99.90;;;;;;4954976;29;20031;-86
2022/06/05 08:17:47;;;;;;;17.67;8.13;;;19.80;99.90;;;;;;4941618;29;20027;-86
2022/06/05 08:20:12;;;;;;;12.73;8.40;;;19.90;99.90;;;;;;4959126;29;20517;-86
2022/06/05 08:22:43;;;;;;;12.35;8.48;;;19.90;99.90;;;;;;4959081;29;20038;-86
2022/06/05 08:25:08;;;;;;;13.48;8.63;;;19.90;99.90;;;;;;4958648;29;20027;-86
2022/06/05 08:27:34;;;;;;;15.52;9.40;;;20.00;99.90;;;;;;4941488;29;20502;-86
2022/06/05 08:30:00;;;;;;;12.75;8.52;;;20.10;99.90;;;;;;4958783;29;20035;-86
2022/06/05 08:32:27;;;;;;;10.68;8.25;;;20.10;99.90;;;;;;4958570;29;20103;-86
2022/06/05 08:34:53;;;;;;;20.15;8.30;;;20.20;99.90;;;;;;4958698;29;20023;-86
2022/06/05 08:43:20;;;;;;;10.18;7.28;;;20.20;99.90;;;;;;4958560;29;20038;-86
2022/06/05 08:46:08;;;;;;;11.35;7.47;;;20.10;99.90;;;;;;4958546;29;20066;-86
2022/06/05 08:48:49;;;;;;;19.15;7.32;;;20.10;99.90;;;;;;4958334;29;20098;-86
2022/06/05 08:51:41;;;;;;;15.82;9.00;;;20.00;99.90;;;;;;4958496;29;20110;-88
2022/06/05 08:54:17;;;;;;;14.93;8.65;;;20.00;99.90;;;;;;4938828;29;20028;-86
2022/06/05 08:56:47;;;;;;;;;;;20.00;99.90;;;;;;4939494;29;20027;-87
2022/06/05 08:59:40;;;;;;;11.30;7.82;;;20.00;99.90;;;;;;4939128;29;19949;-87
2022/06/05 09:02:21;;;;;;;13.27;8.27;;;20.10;99.90;;;;;;4921932;29;20086;-87
2022/06/05 09:04:57;;;;;;;8.45;7.30;;;20.20;99.90;;;;;;4938907;29;20024;-86
2022/06/05 09:07:44;;;;;;;10.40;7.57;;;20.20;99.90;;;;;;4938902;29;20062;-87
2022/06/05 09:10:32;;;;;;;21.30;8.30;;;20.30;99.90;;;;;;4938831;29;20019;-88
2022/06/05 09:13:19;;;;;;;14.05;8.45;;;20.40;99.90;;;;;;4938611;29;20024;-86
2022/06/05 09:15:51;;;;;;;11.25;7.55;;;20.40;99.90;;;;;;4937893;29;20376;-87
2022/06/05 09:18:20;;;;;;;9.38;7.35;;;20.40;99.90;;;;;;4938318;29;20111;-86
2022/06/05 09:20:49;;;;;;;11.90;7.25;;;20.40;99.90;;;;;;4938695;29;20046;-87
2022/06/05 09:23:36;;;;;;;15.05;7.65;;;20.40;99.90;;;;;;4938679;29;20071;-86
2022/06/05 09:26:05;;;;;;;13.23;8.10;;;20.50;99.90;;;;;;4938374;29;20032;-86
2022/06/05 09:28:45;;;;;;;7.97;6.13;;;20.60;99.90;;;;;;4938018;29;20035;-86
2022/06/05 09:31:33;;;;;;;13.02;7.15;;;20.70;99.90;;;;;;4938561;29;20020;-87
2022/06/05 09:34:04;;;;;;;22.17;8.00;;;20.80;99.90;;;;;;4938215;29;20035;-87
2022/06/05 09:36:43;;;;;;;16.48;6.18;;;20.80;99.90;;;;;;4938385;29;20506;-87
2022/06/05 09:39:21;;;;;;;8.95;7.20;;;20.90;99.90;;;;;;4921134;29;20028;-86
2022/06/05 09:42:11;;;;;;;9.20;7.25;;;21.00;99.90;;;;;;4938422;29;20024;-86
2022/06/05 09:45:07;;;;;;;17.13;7.57;;;21.00;99.90;;;;;;4937957;29;20479;-86
2022/06/05 09:47:40;;;;;;;11.00;7.25;;;21.10;99.90;;;;;;4937820;29;20451;-86
2022/06/05 09:50:22;;;;;;;12.10;7.78;;;21.30;99.90;;;;;;4937948;29;20030;-86
2022/06/05 09:52:50;;;;;;;13.55;7.25;;;21.40;99.90;;;;;;4932938;29;20102;-86
2022/06/05 09:55:19;;;;;;;11.57;7.47;;;21.40;99.90;;;;;;4939805;29;20027;-86
2022/06/05 09:58:27;;;;;;;8.20;6.85;;;21.50;99.90;;;;;;4956982;29;20092;-86
2022/06/05 10:01:30;;;;;;;8.55;7.43;;;21.60;99.90;;;;;;4956873;29;20024;-87
2022/06/05 10:03:59;;;;;;;15.07;7.60;;;21.80;99.90;;;;;;4939498;29;20093;-84
2022/06/05 10:06:38;;;;;;;8.38;6.95;;;21.90;99.90;;;;;;4939430;29;20035;-85
2022/06/05 10:09:21;;;;;;;10.05;6.80;;;22.00;99.90;;;;;;4956582;29;20027;-86
2022/06/05 10:11:50;;;;;;;11.10;7.55;;;22.10;99.90;;;;;;4956580;29;20106;-86
2022/06/05 10:14:38;;;;;;;8.23;7.00;;;22.20;99.90;;;;;;4939479;29;20483;-85
2022/06/05 10:17:39;;;;;;;9.88;5.85;;;22.20;99.90;;;;;;4956462;29;20027;-85
2022/06/05 10:20:13;;;;;;;9.55;5.78;;;22.30;99.90;;;;;;4956927;29;20031;-86
2022/06/05 10:22:38;;;;;;;9.95;6.35;;;22.40;99.90;;;;;;4956497;29;20038;-86
2022/06/05 10:25:30;;;;;;;9.73;6.35;;;22.40;99.90;;;;;;4939132;29;20383;-86
2022/06/05 10:28:00;;;;;;;10.20;5.68;;;22.40;99.90;;;;;;4956334;29;20031;-85
2022/06/05 10:30:33;;;;;;;9.63;5.57;;;22.50;99.90;;;;;;4956297;29;20027;-86
2022/06/05 10:33:02;;;;;;;6.47;5.32;;;22.50;99.90;;;;;;4955868;29;20099;-86
2022/06/05 10:35:52;;;;;;;6.55;5.35;;;22.60;99.90;;;;;;4956172;29;20019;-86
2022/06/05 10:38:49;;;;;;;7.63;5.35;;;22.70;99.90;;;;;;4938807;28;20518;-85
2022/06/05 10:42:01;;;;;;;5.57;4.85;;;22.80;99.90;;;;;;4915408;29;20146;-85
2022/06/05 10:45:17;;;;;;;13.65;4.97;;;22.90;99.90;;;;;;4861614;29;20409;-86
2022/06/05 10:48:08;;;;;;;7.70;4.25;;;23.00;99.90;;;;;;4948362;29;20458;-86
2022/06/05 10:50:49;;;;;;;13.20;4.40;;;23.10;99.90;;;;;;4955792;29;20101;-85
2022/06/05 10:53:14;;;;;;;7.15;4.18;;;23.00;99.90;;;;;;4955354;29;20043;-85
2022/06/05 10:55:49;;;;;;;8.10;4.25;;;23.00;99.90;;;;;;4955596;29;20030;-86
2022/06/05 10:58:26;;;;;;;6.97;4.97;;;23.00;99.90;;;;;;4955700;29;20101;-86
2022/06/05 11:01:10;;;;;;;9.05;4.75;;;22.90;99.90;;;;;;4955389;29;20380;-85
2022/06/05 11:03:39;;;;;;;11.13;4.05;;;23.10;99.90;;;;;;4955455;29;20126;-87
2022/06/05 11:06:14;;;;;;;9.07;4.55;;;23.10;99.90;;;;;;4955450;29;20027;-86
2022/06/05 11:08:56;;;;;;;;;;;23.20;99.90;;;;;;4938465;29;20114;-86
2022/06/05 11:14:46;;;;;;;4.25;3.85;;;23.20;99.90;;;;;;4955601;29;20065;-86
2022/06/05 11:17:35;;;;;;;3.83;3.50;;;23.30;99.90;;;;;;4955085;29;20028;-85
2022/06/05 11:20:13;;;;;;;6.82;4.20;;;23.50;99.90;;;;;;4955192;29;20479;-86
2022/06/05 11:22:45;;;;;;;6.32;4.13;;;23.60;99.90;;;;;;4938031;29;20387;-86
2022/06/05 11:25:27;;;;;;;4.95;4.15;;;23.60;99.90;;;;;;4955321;29;20035;-86
2022/06/05 11:28:39;;;;;;;4.45;3.80;;;23.60;99.90;;;;;;4954958;29;20027;-85
2022/06/05 11:31:26;;;;;;;4.43;4.03;;;23.80;99.90;;;;;;4937703;29;20064;-86
2022/06/05 11:34:23;;;;;;;5.80;4.60;;;23.90;99.90;;;;;;4937662;29;20395;-86
2022/06/05 11:36:54;;;;;;;10.68;4.20;;;23.90;99.90;;;;;;4955004;29;20062;-86
2022/06/05 11:39:28;;;;;;;6.22;3.72;;;23.90;99.90;;;;;;4954965;29;20019;-86
2022/06/05 11:42:13;;;;;;;4.93;3.33;;;24.00;99.90;;;;;;4937557;29;20476;-86
2022/06/05 11:45:05;;;;;;;4.05;3.38;;;24.00;99.90;;;;;;4954714;29;20047;-86
2022/06/05 11:47:50;;;;;;;4.93;3.33;;;24.10;99.90;;;;;;4954533;29;20031;-85
2022/06/05 11:50:38;;;;;;;2.80;2.60;;;24.20;99.90;;;;;;4937297;29;20027;-85
2022/06/05 11:53:31;;;;;;;6.80;3.65;;;24.20;99.90;;;;;;4954696;29;20050;-86
2022/06/05 11:56:39;;;;;;;4.40;2.95;;;24.20;99.90;;;;;;4937364;29;20360;-86
2022/06/05 11:59:27;;;;;;;17.98;3.60;;;24.20;99.90;;;;;;4954677;29;20023;-85
2022/06/05 12:02:27;;;;;;;5.50;2.97;;;24.30;99.90;;;;;;4954807;29;20019;-86
2022/06/05 12:05:01;;;;;;;11.50;3.45;;;24.20;99.90;;;;;;4954768;29;20023;-85
2022/06/05 12:07:28;;;;;;;5.35;3.22;;;24.20;99.90;;;;;;4954717;29;20041;-85
2022/06/05 12:10:08;;;;;;;9.50;3.50;;;24.20;99.90;;;;;;4937580;29;20028;-86
2022/06/05 12:12:46;;;;;;;6.65;3.00;;;24.20;99.90;;;;;;4954636;29;20030;-86
2022/06/05 12:15:44;;;;;;;6.03;3.30;;;24.30;99.90;;;;;;4937448;29;20019;-85
2022/06/05 12:18:26;;;;;;;5.20;3.75;;;24.30;99.90;;;;;;4935548;29;20101;-86
2022/06/05 12:21:23;;;;;;;3.92;3.20;;;24.20;99.90;;;;;;4954613;29;20023;-86
2022/06/05 12:24:02;;;;;;;3.25;2.95;;;24.20;99.90;;;;;;4954296;29;20066;-86
2022/06/05 12:26:52;;;;;;;5.68;3.10;;;24.20;99.90;;;;;;4954636;29;20024;-85
2022/06/05 12:29:30;;;;;;;6.65;3.20;;;24.20;99.90;;;;;;4954318;29;20027;-86
2022/06/05 12:32:05;;;;;;;7.72;3.38;;;24.20;99.90;;;;;;4937074;29;20106;-86
2022/06/05 12:34:43;;;;;;;;;;;24.20;99.90;;;;;;4954775;29;20016;-86
2022/06/05 12:37:23;;;;;;;3.35;2.67;;;24.20;99.90;;;;;;4954246;29;19918;-85
2022/06/05 12:39:52;;;;;;;4.57;2.95;;;24.20;99.90;;;;;;4954384;29;20030;-87
2022/06/05 12:42:38;;;;;;;6.20;2.85;;;24.20;99.90;;;;;;4954328;29;20059;-86
2022/06/05 12:45:29;;;;;;;4.40;4.00;;;24.30;99.90;;;;;;4937036;29;20069;-85
2022/06/05 12:48:22;;;;;;;5.88;2.97;;;24.20;99.90;;;;;;4954099;29;20030;-85
2022/06/05 12:51:12;;;;;;;5.93;3.22;;;24.20;99.90;;;;;;4936860;29;20031;-85
2022/06/05 12:53:57;;;;;;;5.00;3.63;;;24.20;99.90;;;;;;4954024;29;20043;-86
2022/06/05 12:56:35;;;;;;;5.22;3.88;;;24.10;99.90;;;;;;4954470;29;20078;-86
2022/06/05 12:59:21;;;;;;;9.48;4.18;;;24.00;99.90;;;;;;4936962;29;20035;-86
2022/06/05 13:01:58;;;;;;;6.25;3.90;;;24.00;99.90;;;;;;4953975;28;20379;-86
2022/06/05 13:04:47;;;;;;;4.70;3.70;;;24.00;99.90;;;;;;4957635;29;20028;-86
2022/06/05 13:07:38;;;;;;;4.32;3.75;;;23.90;99.90;;;;;;4957656;29;20039;-86
2022/06/05 13:10:20;;;;;;;9.02;4.22;;;23.90;99.90;;;;;;4957555;29;20024;-86
2022/06/05 13:12:51;;;;;;;6.20;4.50;;;23.90;99.90;;;;;;4957504;29;20027;-86
2022/06/05 13:15:22;;;;;;;4.82;3.65;;;23.90;99.90;;;;;;4957436;29;20046;-85
2022/06/05 13:18:04;;;;;;;9.35;4.50;;;23.80;99.90;;;;;;4957194;29;20386;-85
2022/06/05 13:20:38;;;;;;;6.72;3.72;;;23.80;99.90;;;;;;4957425;29;20019;-85
2022/06/05 13:23:30;;;;;;;6.88;3.97;;;23.80;99.90;;;;;;4957407;29;20063;-85
2022/06/05 13:26:02;;;;;;;4.50;4.10;;;23.80;99.90;;;;;;4957347;29;20118;-86
2022/06/05 13:28:35;;;;;;;10.75;4.15;;;23.80;99.90;;;;;;4940154;29;20027;-85
2022/06/05 13:31:15;;;;;;;5.28;4.63;;;23.70;99.90;;;;;;4957211;29;20019;-86
2022/06/05 13:34:05;;;;;;;5.28;4.22;;;23.70;99.90;;;;;;4957190;29;20110;-85
2022/06/05 13:36:44;;;;;;;4.95;4.50;;;23.70;99.90;;;;;;4957355;29;20027;-86
2022/06/05 13:39:22;;;;;;;5.47;4.45;;;23.60;99.90;;;;;;4939911;29;20395;-86
2022/06/05 13:41:53;;;;;;;6.03;4.53;;;23.50;99.90;;;;;;4957074;29;20090;-86
2022/06/05 13:44:22;;;;;;;4.40;4.00;;;23.60;99.90;;;;;;4957107;29;20032;-86
2022/06/05 13:47:12;;;;;;;6.25;4.97;;;23.50;99.90;;;;;;4957072;29;20035;-86
2022/06/05 13:49:54;;;;;;;5.55;5.03;;;23.50;99.90;;;;;;4957181;29;20058;-86
2022/06/05 13:52:39;;;;;;;6.70;4.43;;;23.40;99.90;;;;;;4939571;29;20047;-86